Ever Diamond — 3FQS8 — position and weather

sailwx.info

Track history (hours):
 
Tides and Currents Weather Stations Pressure Air Temp Water Temp Dewpoint Dewpoint Depression Visibility Wind Speed Wind Dir Waves Ship Positions

Ever Diamond

Last reported at 2017-May-16 13:08 UTC. Time now 2017-May-29 20:40 UTC.
Position N 01°54' E 102°20'.
Warning: this ship's position is 13 days out of date.

Type: Ship (hazmat cat D). MMSI: 354893000.

Date/timePositionNaut miles runAvg speedWind from/ knotsBaromVisibWave heightAir tempDewpointWater temp
2017-May-16 13:08N 01°54' E 102°20'213.7
2017-May-16 12:59N 01°53' E 102°22'714.0
2017-May-16 12:30N 01°50' E 102°28'1314.6
2017-May-16 11:38N 01°45' E 102°40'615.1
2017-May-16 11:13N 01°42' E 102°45'4214.5
2017-May-16 08:18N 01°17' E 103°20'513.2
2017-May-16 07:55N 01°14' E 103°24'513.2
2017-May-16 07:30N 01°13' E 103°29'613.0
2017-May-16 07:00N 01°12' E 103°35'5 9.3
2017-May-16 06:30N 01°13' E 103°40'510.3
2017-May-16 06:00N 01°16' E 103°44'3 5.2
2017-May-16 05:28N 01°17' E 103°47'0 0.1
2017-May-16 04:58N 01°17' E 103°47'0 0.0
2017-May-16 04:28N 01°17' E 103°47'0 0.0
2017-May-16 03:55N 01°17' E 103°47'0 0.1
2017-May-16 03:28N 01°17' E 103°47'0 0.0
2017-May-16 02:58N 01°17' E 103°47'0 0.0
2017-May-16 02:28N 01°17' E 103°47'0 0.0
2017-May-16 01:58N 01°17' E 103°47'0 0.0
2017-May-16 01:25N 01°17' E 103°47'0 0.0
2017-May-16 00:58N 01°17' E 103°47'0 0.0
2017-May-16 00:28N 01°17' E 103°47'0 0.0
2017-May-15 23:55N 01°17' E 103°47'0 0.0
2017-May-15 23:28N 01°17' E 103°47'0 0.0
2017-May-15 22:58N 01°17' E 103°47'0 0.0
2017-May-15 22:28N 01°17' E 103°47'0 0.0
2017-May-15 21:58N 01°17' E 103°47'0 0.0
2017-May-15 21:28N 01°17' E 103°47'0 0.1
2017-May-15 20:58N 01°17' E 103°47'0 0.1
2017-May-15 20:28N 01°17' E 103°47'0 0.0
2017-May-15 19:58N 01°17' E 103°47'0 0.0
2017-May-15 19:28N 01°17' E 103°47'0 0.0
2017-May-15 18:58N 01°17' E 103°47'0 0.0
2017-May-15 18:25N 01°17' E 103°47'0 0.0
2017-May-15 17:58N 01°17' E 103°47'0 0.0
2017-May-15 17:25N 01°17' E 103°47'0 0.0
2017-May-15 16:58N 01°17' E 103°47'0 0.0
2017-May-15 16:22N 01°17' E 103°47'0 0.0
2017-May-15 15:58N 01°17' E 103°47'0 0.0
2017-May-15 15:28N 01°17' E 103°47'0 0.0
2017-May-15 14:58N 01°17' E 103°47'0 0.0
2017-May-15 13:58N 01°17' E 103°47'0 0.0
2017-May-15 13:28N 01°17' E 103°47'0 0.0
2017-May-15 12:58N 01°17' E 103°47'0 0.0
2017-May-15 12:28N 01°17' E 103°47'0 0.0
2017-May-15 11:58N 01°17' E 103°47'0 0.0
2017-May-15 11:28N 01°17' E 103°47'0 0.1
2017-May-15 11:01N 01°17' E 103°47'1 1.6
2017-May-15 10:30N 01°16' E 103°46'3 6.9
2017-May-15 10:00N 01°13' E 103°48'611.2
2017-May-15 09:30N 01°14' E 103°54'2 4.9
2017-May-15 09:00N 01°14' E 103°56'3 6.5
2017-May-15 08:30N 01°15' E 103°59'4 8.1
2017-May-15 08:00N 01°16' E 104°03'4 8.3
2017-May-15 07:29N 01°17' E 104°08'  
2017-May-09 10:02N 01°15' E 104°07'117.7
2017-May-09 09:58N 01°15' E 104°06'817.6
2017-May-09 09:30N 01°14' E 103°58'815.1
2017-May-09 09:00N 01°12' E 103°51'4 8.1
2017-May-09 08:30N 01°13' E 103°47'4 7.9
2017-May-09 07:59N 01°17' E 103°45'1 2.0
2017-May-09 07:28N 01°17' E 103°46'0 0.0
2017-May-09 06:55N 01°17' E 103°46'0 0.0
2017-May-09 06:19N 01°17' E 103°46'0 0.0
2017-May-09 05:55N 01°17' E 103°46'0 0.1
2017-May-09 05:28N 01°17' E 103°46'0 0.0
2017-May-09 04:55N 01°17' E 103°46'0 0.1
2017-May-09 04:25N 01°17' E 103°46'0 0.0
2017-May-09 03:55N 01°17' E 103°46'0 0.0
2017-May-09 03:25N 01°17' E 103°46'0 0.0
2017-May-09 02:55N 01°17' E 103°46'0 0.1
2017-May-09 02:25N 01°17' E 103°46'0 0.1
2017-May-09 01:52N 01°17' E 103°46'0 0.1
2017-May-09 01:25N 01°17' E 103°46'0 0.1
2017-May-09 00:46N 01°17' E 103°46'0 0.0
2017-May-09 00:28N 01°17' E 103°46'0 0.2
2017-May-09 00:00N 01°17' E 103°46'1 1.8
2017-May-08 23:30N 01°17' E 103°45'3 5.8
2017-May-08 23:00N 01°14' E 103°43'510.7
2017-May-08 22:30N 01°12' E 103°38'3 6.2
2017-May-08 22:00N 01°12' E 103°35'2 3.7
2017-May-08 21:30N 01°11' E 103°33'4 7.1
2017-May-08 21:00N 01°11' E 103°30'2 3.3
2017-May-08 20:28N 01°11' E 103°28'0 0.8
2017-May-08 20:00N 01°11' E 103°28'0 1.0
2017-May-08 19:30N 01°11' E 103°28'0 0.8
2017-May-08 19:00N 01°11' E 103°28'2 4.5
2017-May-08 18:30N 01°11' E 103°26'4511.3
2017-May-08 14:33N 01°37' E 102°50'011.6
2017-May-08 14:30N 01°38' E 102°49'1612.2
2017-May-08 13:12N 01°44' E 102°35'412.5
2017-May-08 12:54N 01°46' E 102°32'512.7
2017-May-08 12:29N 01°48' E 102°27'  
Track history (hours):
 
Tides and Currents Weather Stations Pressure Air Temp Water Temp Dewpoint Dewpoint Depression Visibility Wind Speed Wind Dir Waves Ship Positions

Ever Diamond

Last reported at 2017-May-16 13:08 UTC. Time now 2017-May-29 20:40 UTC.
Position N 01°54' E 102°20'.
Warning: this ship's position is 13 days out of date.

Type: Ship (hazmat cat D). MMSI: 354893000.

Date/timePositionNaut miles runAvg speedWind from/ knotsBaromVisibWave heightAir tempDewpointWater temp
2017-May-16 13:08N 01°54' E 102°20'213.7
2017-May-16 12:59N 01°53' E 102°22'714.0
2017-May-16 12:30N 01°50' E 102°28'1314.6
2017-May-16 11:38N 01°45' E 102°40'615.1
2017-May-16 11:13N 01°42' E 102°45'4214.5
2017-May-16 08:18N 01°17' E 103°20'513.2
2017-May-16 07:55N 01°14' E 103°24'513.2
2017-May-16 07:30N 01°13' E 103°29'613.0
2017-May-16 07:00N 01°12' E 103°35'5 9.3
2017-May-16 06:30N 01°13' E 103°40'510.3
2017-May-16 06:00N 01°16' E 103°44'3 5.2
2017-May-16 05:28N 01°17' E 103°47'0 0.1
2017-May-16 04:58N 01°17' E 103°47'0 0.0
2017-May-16 04:28N 01°17' E 103°47'0 0.0
2017-May-16 03:55N 01°17' E 103°47'0 0.1
2017-May-16 03:28N 01°17' E 103°47'0 0.0
2017-May-16 02:58N 01°17' E 103°47'0 0.0
2017-May-16 02:28N 01°17' E 103°47'0 0.0
2017-May-16 01:58N 01°17' E 103°47'0 0.0
2017-May-16 01:25N 01°17' E 103°47'0 0.0
2017-May-16 00:58N 01°17' E 103°47'0 0.0
2017-May-16 00:28N 01°17' E 103°47'0 0.0
2017-May-15 23:55N 01°17' E 103°47'0 0.0
2017-May-15 23:28N 01°17' E 103°47'0 0.0
2017-May-15 22:58N 01°17' E 103°47'0 0.0
2017-May-15 22:28N 01°17' E 103°47'0 0.0
2017-May-15 21:58N 01°17' E 103°47'0 0.0
2017-May-15 21:28N 01°17' E 103°47'0 0.1
2017-May-15 20:58N 01°17' E 103°47'0 0.1
2017-May-15 20:28N 01°17' E 103°47'0 0.0
2017-May-15 19:58N 01°17' E 103°47'0 0.0
2017-May-15 19:28N 01°17' E 103°47'0 0.0
2017-May-15 18:58N 01°17' E 103°47'0 0.0
2017-May-15 18:25N 01°17' E 103°47'0 0.0
2017-May-15 17:58N 01°17' E 103°47'0 0.0
2017-May-15 17:25N 01°17' E 103°47'0 0.0
2017-May-15 16:58N 01°17' E 103°47'0 0.0
2017-May-15 16:22N 01°17' E 103°47'0 0.0
2017-May-15 15:58N 01°17' E 103°47'0 0.0
2017-May-15 15:28N 01°17' E 103°47'0 0.0
2017-May-15 14:58N 01°17' E 103°47'0 0.0
2017-May-15 13:58N 01°17' E 103°47'0 0.0
2017-May-15 13:28N 01°17' E 103°47'0 0.0
2017-May-15 12:58N 01°17' E 103°47'0 0.0
2017-May-15 12:28N 01°17' E 103°47'0 0.0
2017-May-15 11:58N 01°17' E 103°47'0 0.0
2017-May-15 11:28N 01°17' E 103°47'0 0.1
2017-May-15 11:01N 01°17' E 103°47'1 1.6
2017-May-15 10:30N 01°16' E 103°46'3 6.9
2017-May-15 10:00N 01°13' E 103°48'611.2
2017-May-15 09:30N 01°14' E 103°54'2 4.9
2017-May-15 09:00N 01°14' E 103°56'3 6.5
2017-May-15 08:30N 01°15' E 103°59'4 8.1
2017-May-15 08:00N 01°16' E 104°03'4 8.3
2017-May-15 07:29N 01°17' E 104°08'  
2017-May-09 10:02N 01°15' E 104°07'117.7
2017-May-09 09:58N 01°15' E 104°06'817.6
2017-May-09 09:30N 01°14' E 103°58'815.1
2017-May-09 09:00N 01°12' E 103°51'4 8.1
2017-May-09 08:30N 01°13' E 103°47'4 7.9
2017-May-09 07:59N 01°17' E 103°45'1 2.0
2017-May-09 07:28N 01°17' E 103°46'0 0.0
2017-May-09 06:55N 01°17' E 103°46'0 0.0
2017-May-09 06:19N 01°17' E 103°46'0 0.0
2017-May-09 05:55N 01°17' E 103°46'0 0.1
2017-May-09 05:28N 01°17' E 103°46'0 0.0
2017-May-09 04:55N 01°17' E 103°46'0 0.1
2017-May-09 04:25N 01°17' E 103°46'0 0.0
2017-May-09 03:55N 01°17' E 103°46'0 0.0
2017-May-09 03:25N 01°17' E 103°46'0 0.0
2017-May-09 02:55N 01°17' E 103°46'0 0.1
2017-May-09 02:25N 01°17' E 103°46'0 0.1
2017-May-09 01:52N 01°17' E 103°46'0 0.1
2017-May-09 01:25N 01°17' E 103°46'0 0.1
2017-May-09 00:46N 01°17' E 103°46'0 0.0
2017-May-09 00:28N 01°17' E 103°46'0 0.2
2017-May-09 00:00N 01°17' E 103°46'1 1.8
2017-May-08 23:30N 01°17' E 103°45'3 5.8
2017-May-08 23:00N 01°14' E 103°43'510.7
2017-May-08 22:30N 01°12' E 103°38'3 6.2
2017-May-08 22:00N 01°12' E 103°35'2 3.7
2017-May-08 21:30N 01°11' E 103°33'4 7.1
2017-May-08 21:00N 01°11' E 103°30'2 3.3
2017-May-08 20:28N 01°11' E 103°28'0 0.8
2017-May-08 20:00N 01°11' E 103°28'0 1.0
2017-May-08 19:30N 01°11' E 103°28'0 0.8
2017-May-08 19:00N 01°11' E 103°28'2 4.5
2017-May-08 18:30N 01°11' E 103°26'4511.3
2017-May-08 14:33N 01°37' E 102°50'011.6
2017-May-08 14:30N 01°38' E 102°49'1612.2
2017-May-08 13:12N 01°44' E 102°35'412.5
2017-May-08 12:54N 01°46' E 102°32'512.7
2017-May-08 12:29N 01°48' E 102°27'  

Dump ship's entire track history